sensor_id;sensor_type;location;lat;lon;timestamp;temperature;humidity
10390;DHT22;5241;47.830;12.972;2023-09-19T00:01:28;15.80;99.90
10390;DHT22;5241;47.830;12.972;2023-09-19T00:03:56;15.70;99.90
10390;DHT22;5241;47.830;12.972;2023-09-19T00:06:22;15.70;99.90
10390;DHT22;5241;47.830;12.972;2023-09-19T00:08:51;15.70;99.90
10390;DHT22;5241;47.830;12.972;2023-09-19T00:11:17;15.70;99.90
10390;DHT22;5241;47.830;12.972;2023-09-19T00:13:43;15.70;99.90
10390;DHT22;5241;47.830;12.972;2023-09-19T00:16:10;15.70;99.90
10390;DHT22;5241;47.830;12.972;2023-09-19T00:18:37;15.60;99.90
10390;DHT22;5241;47.830;12.972;2023-09-19T00:21:03;15.60;99.90
10390;DHT22;5241;47.830;12.972;2023-09-19T00:23:33;15.60;99.90
10390;DHT22;5241;47.830;12.972;2023-09-19T00:26:01;15.60;99.90
10390;DHT22;5241;47.830;12.972;2023-09-19T00:28:27;15.50;99.90
10390;DHT22;5241;47.830;12.972;2023-09-19T00:30:53;15.50;99.90
10390;DHT22;5241;47.830;12.972;2023-09-19T00:33:21;15.50;99.90
10390;DHT22;5241;47.830;12.972;2023-09-19T00:35:56;15.50;99.90
10390;DHT22;5241;47.830;12.972;2023-09-19T00:38:27;15.40;99.90
10390;DHT22;5241;47.830;12.972;2023-09-19T00:40:53;15.50;99.90
10390;DHT22;5241;47.830;12.972;2023-09-19T00:43:20;15.50;99.90
10390;DHT22;5241;47.830;12.972;2023-09-19T00:45:47;15.50;99.90
10390;DHT22;5241;47.830;12.972;2023-09-19T00:48:14;15.50;99.90
10390;DHT22;5241;47.830;12.972;2023-09-19T00:50:42;15.50;99.90
10390;DHT22;5241;47.830;12.972;2023-09-19T00:53:09;15.50;99.90
10390;DHT22;5241;47.830;12.972;2023-09-19T00:55:35;15.50;99.90
10390;DHT22;5241;47.830;12.972;2023-09-19T00:58:02;15.50;99.90
10390;DHT22;5241;47.830;12.972;2023-09-19T01:00:28;15.50;99.90
10390;DHT22;5241;47.830;12.972;2023-09-19T01:02:54;15.50;99.90
10390;DHT22;5241;47.830;12.972;2023-09-19T01:05:21;15.50;99.90
10390;DHT22;5241;47.830;12.972;2023-09-19T01:07:46;15.60;99.90
10390;DHT22;5241;47.830;12.972;2023-09-19T01:10:17;15.60;99.90
10390;DHT22;5241;47.830;12.972;2023-09-19T01:18:27;15.50;99.90
10390;DHT22;5241;47.830;12.972;2023-09-19T01:31:45;15.50;99.90
10390;DHT22;5241;47.830;12.972;2023-09-19T01:34:12;15.50;99.90
10390;DHT22;5241;47.830;12.972;2023-09-19T01:36:38;15.50;99.90
10390;DHT22;5241;47.830;12.972;2023-09-19T01:39:11;15.50;99.90
10390;DHT22;5241;47.830;12.972;2023-09-19T01:42:08;15.50;99.90
10390;DHT22;5241;47.830;12.972;2023-09-19T01:44:57;15.50;99.90
10390;DHT22;5241;47.830;12.972;2023-09-19T01:47:32;15.50;99.90
10390;DHT22;5241;47.830;12.972;2023-09-19T01:55:48;15.50;99.90
10390;DHT22;5241;47.830;12.972;2023-09-19T01:58:20;15.60;99.90
10390;DHT22;5241;47.830;12.972;2023-09-19T02:00:48;15.60;99.90
10390;DHT22;5241;47.830;12.972;2023-09-19T02:03:16;15.50;99.90
10390;DHT22;5241;47.830;12.972;2023-09-19T02:05:49;15.60;99.90
10390;DHT22;5241;47.830;12.972;2023-09-19T02:08:17;15.60;99.90
10390;DHT22;5241;47.830;12.972;2023-09-19T02:10:44;15.60;99.90
10390;DHT22;5241;47.830;12.972;2023-09-19T02:13:17;15.60;99.90
10390;DHT22;5241;47.830;12.972;2023-09-19T02:15:44;15.60;99.90
10390;DHT22;5241;47.830;12.972;2023-09-19T02:18:10;15.70;99.90
10390;DHT22;5241;47.830;12.972;2023-09-19T02:20:37;15.60;99.90
10390;DHT22;5241;47.830;12.972;2023-09-19T02:23:03;15.60;99.90
10390;DHT22;5241;47.830;12.972;2023-09-19T02:25:29;15.60;99.90
10390;DHT22;5241;47.830;12.972;2023-09-19T02:27:56;15.60;99.90
10390;DHT22;5241;47.830;12.972;2023-09-19T02:30:26;15.70;99.90
10390;DHT22;5241;47.830;12.972;2023-09-19T02:32:52;15.60;99.90
10390;DHT22;5241;47.830;12.972;2023-09-19T02:35:17;15.70;99.90
10390;DHT22;5241;47.830;12.972;2023-09-19T02:37:46;15.70;99.90
10390;DHT22;5241;47.830;12.972;2023-09-19T02:40:12;15.80;99.90
10390;DHT22;5241;47.830;12.972;2023-09-19T02:42:45;15.80;99.90
10390;DHT22;5241;47.830;12.972;2023-09-19T02:45:12;15.80;99.90
10390;DHT22;5241;47.830;12.972;2023-09-19T02:47:40;15.80;99.90
10390;DHT22;5241;47.830;12.972;2023-09-19T02:50:06;15.90;99.90
10390;DHT22;5241;47.830;12.972;2023-09-19T02:52:31;15.80;99.90
10390;DHT22;5241;47.830;12.972;2023-09-19T02:54:57;15.80;99.90
10390;DHT22;5241;47.830;12.972;2023-09-19T02:57:22;15.90;99.90
10390;DHT22;5241;47.830;12.972;2023-09-19T02:59:49;16.00;99.90
10390;DHT22;5241;47.830;12.972;2023-09-19T03:02:15;16.00;99.90
10390;DHT22;5241;47.830;12.972;2023-09-19T03:04:41;16.00;99.90
10390;DHT22;5241;47.830;12.972;2023-09-19T03:07:06;16.00;99.90
10390;DHT22;5241;47.830;12.972;2023-09-19T03:09:32;16.00;99.90
10390;DHT22;5241;47.830;12.972;2023-09-19T03:11:58;16.00;99.90
10390;DHT22;5241;47.830;12.972;2023-09-19T03:14:24;16.00;99.90
10390;DHT22;5241;47.830;12.972;2023-09-19T03:16:50;16.00;99.90
10390;DHT22;5241;47.830;12.972;2023-09-19T03:19:17;16.10;99.90
10390;DHT22;5241;47.830;12.972;2023-09-19T03:21:43;16.10;99.90
10390;DHT22;5241;47.830;12.972;2023-09-19T03:24:09;16.10;99.90
10390;DHT22;5241;47.830;12.972;2023-09-19T03:26:34;16.10;99.90
10390;DHT22;5241;47.830;12.972;2023-09-19T03:29:03;16.10;99.90
10390;DHT22;5241;47.830;12.972;2023-09-19T03:31:31;16.10;99.90
10390;DHT22;5241;47.830;12.972;2023-09-19T03:33:57;16.00;99.90
10390;DHT22;5241;47.830;12.972;2023-09-19T03:36:22;16.00;99.90
10390;DHT22;5241;47.830;12.972;2023-09-19T03:38:48;15.90;99.90
10390;DHT22;5241;47.830;12.972;2023-09-19T03:41:14;15.80;99.90
10390;DHT22;5241;47.830;12.972;2023-09-19T03:43:42;15.80;99.90
10390;DHT22;5241;47.830;12.972;2023-09-19T03:46:08;16.00;99.90
10390;DHT22;5241;47.830;12.972;2023-09-19T03:48:33;16.00;99.90
10390;DHT22;5241;47.830;12.972;2023-09-19T03:50:59;15.90;99.90
10390;DHT22;5241;47.830;12.972;2023-09-19T03:53:24;15.90;99.90
10390;DHT22;5241;47.830;12.972;2023-09-19T03:55:50;15.80;99.90
10390;DHT22;5241;47.830;12.972;2023-09-19T03:58:15;15.80;99.90
10390;DHT22;5241;47.830;12.972;2023-09-19T04:00:41;15.80;99.90
10390;DHT22;5241;47.830;12.972;2023-09-19T04:03:07;15.80;99.90
10390;DHT22;5241;47.830;12.972;2023-09-19T04:05:33;15.80;99.90
10390;DHT22;5241;47.830;12.972;2023-09-19T04:07:59;15.80;99.90
10390;DHT22;5241;47.830;12.972;2023-09-19T04:10:24;15.80;99.90
10390;DHT22;5241;47.830;12.972;2023-09-19T04:12:51;15.70;99.90
10390;DHT22;5241;47.830;12.972;2023-09-19T04:15:18;15.70;99.90
10390;DHT22;5241;47.830;12.972;2023-09-19T04:17:44;15.80;99.90
10390;DHT22;5241;47.830;12.972;2023-09-19T04:20:09;15.80;99.90
10390;DHT22;5241;47.830;12.972;2023-09-19T04:22:37;15.80;99.90
10390;DHT22;5241;47.830;12.972;2023-09-19T04:25:04;15.80;99.90
10390;DHT22;5241;47.830;12.972;2023-09-19T04:27:29;15.90;99.90
10390;DHT22;5241;47.830;12.972;2023-09-19T04:29:55;15.90;99.90
10390;DHT22;5241;47.830;12.972;2023-09-19T04:32:27;15.80;99.90
10390;DHT22;5241;47.830;12.972;2023-09-19T04:34:53;15.80;99.90
10390;DHT22;5241;47.830;12.972;2023-09-19T04:37:19;15.90;99.90
10390;DHT22;5241;47.830;12.972;2023-09-19T04:39:44;15.90;99.90
10390;DHT22;5241;47.830;12.972;2023-09-19T04:42:13;15.80;99.90
10390;DHT22;5241;47.830;12.972;2023-09-19T04:44:40;15.80;99.90
10390;DHT22;5241;47.830;12.972;2023-09-19T04:47:05;15.80;99.90
10390;DHT22;5241;47.830;12.972;2023-09-19T04:49:31;15.80;99.90
10390;DHT22;5241;47.830;12.972;2023-09-19T04:51:57;15.80;99.90
10390;DHT22;5241;47.830;12.972;2023-09-19T04:54:22;15.80;99.90
10390;DHT22;5241;47.830;12.972;2023-09-19T04:56:48;15.80;99.90
10390;DHT22;5241;47.830;12.972;2023-09-19T04:59:13;15.90;99.90
10390;DHT22;5241;47.830;12.972;2023-09-19T05:01:40;16.00;99.90
10390;DHT22;5241;47.830;12.972;2023-09-19T05:04:05;16.00;99.90
10390;DHT22;5241;47.830;12.972;2023-09-19T05:06:31;16.00;99.90
10390;DHT22;5241;47.830;12.972;2023-09-19T05:08:57;16.00;99.90
10390;DHT22;5241;47.830;12.972;2023-09-19T05:11:22;16.00;99.90
10390;DHT22;5241;47.830;12.972;2023-09-19T05:13:48;16.00;99.90
10390;DHT22;5241;47.830;12.972;2023-09-19T05:16:18;16.00;99.90
10390;DHT22;5241;47.830;12.972;2023-09-19T05:18:44;16.00;99.90
10390;DHT22;5241;47.830;12.972;2023-09-19T05:21:10;16.10;99.90
10390;DHT22;5241;47.830;12.972;2023-09-19T05:23:35;16.00;99.90
10390;DHT22;5241;47.830;12.972;2023-09-19T05:26:02;16.00;99.90
10390;DHT22;5241;47.830;12.972;2023-09-19T05:28:29;16.00;99.90
10390;DHT22;5241;47.830;12.972;2023-09-19T05:30:55;16.00;99.90
10390;DHT22;5241;47.830;12.972;2023-09-19T05:33:20;16.00;99.90
10390;DHT22;5241;47.830;12.972;2023-09-19T05:35:48;16.00;99.90
10390;DHT22;5241;47.830;12.972;2023-09-19T05:38:14;15.90;99.90
10390;DHT22;5241;47.830;12.972;2023-09-19T05:40:41;15.90;99.90
10390;DHT22;5241;47.830;12.972;2023-09-19T05:43:08;15.80;99.90
10390;DHT22;5241;47.830;12.972;2023-09-19T05:45:34;15.80;99.90
10390;DHT22;5241;47.830;12.972;2023-09-19T05:48:13;15.90;99.90
10390;DHT22;5241;47.830;12.972;2023-09-19T05:50:39;15.90;99.90
10390;DHT22;5241;47.830;12.972;2023-09-19T05:53:05;16.00;99.90
10390;DHT22;5241;47.830;12.972;2023-09-19T05:55:31;16.10;99.90
10390;DHT22;5241;47.830;12.972;2023-09-19T05:57:57;16.20;99.90
10390;DHT22;5241;47.830;12.972;2023-09-19T06:00:23;16.30;99.90
10390;DHT22;5241;47.830;12.972;2023-09-19T06:02:51;16.50;99.90
10390;DHT22;5241;47.830;12.972;2023-09-19T06:05:17;16.50;99.90
10390;DHT22;5241;47.830;12.972;2023-09-19T06:07:43;16.60;99.90
10390;DHT22;5241;47.830;12.972;2023-09-19T06:10:08;16.70;99.90
10390;DHT22;5241;47.830;12.972;2023-09-19T06:12:42;16.80;99.90
10390;DHT22;5241;47.830;12.972;2023-09-19T06:15:09;16.90;99.90
10390;DHT22;5241;47.830;12.972;2023-09-19T06:17:46;17.00;99.90
10390;DHT22;5241;47.830;12.972;2023-09-19T06:20:12;17.10;99.90
10390;DHT22;5241;47.830;12.972;2023-09-19T06:22:41;17.00;99.90
10390;DHT22;5241;47.830;12.972;2023-09-19T06:25:08;17.10;99.90
10390;DHT22;5241;47.830;12.972;2023-09-19T06:27:37;17.10;99.90
10390;DHT22;5241;47.830;12.972;2023-09-19T06:30:02;17.10;99.90
10390;DHT22;5241;47.830;12.972;2023-09-19T06:32:28;17.10;99.90
10390;DHT22;5241;47.830;12.972;2023-09-19T06:34:54;17.10;99.90
10390;DHT22;5241;47.830;12.972;2023-09-19T06:37:20;17.00;99.90
10390;DHT22;5241;47.830;12.972;2023-09-19T06:39:47;17.00;99.90
10390;DHT22;5241;47.830;12.972;2023-09-19T06:42:15;17.10;99.90
10390;DHT22;5241;47.830;12.972;2023-09-19T06:44:42;17.20;99.90
10390;DHT22;5241;47.830;12.972;2023-09-19T06:47:08;17.30;99.90
10390;DHT22;5241;47.830;12.972;2023-09-19T06:49:36;17.60;99.90
10390;DHT22;5241;47.830;12.972;2023-09-19T06:52:02;17.70;99.90
10390;DHT22;5241;47.830;12.972;2023-09-19T06:54:28;17.90;99.90
10390;DHT22;5241;47.830;12.972;2023-09-19T06:56:59;17.90;99.90
10390;DHT22;5241;47.830;12.972;2023-09-19T06:59:25;17.90;99.90
10390;DHT22;5241;47.830;12.972;2023-09-19T07:01:50;18.00;99.90
10390;DHT22;5241;47.830;12.972;2023-09-19T07:04:16;17.80;99.90
10390;DHT22;5241;47.830;12.972;2023-09-19T07:06:44;17.60;99.90
10390;DHT22;5241;47.830;12.972;2023-09-19T07:09:11;17.50;99.90
10390;DHT22;5241;47.830;12.972;2023-09-19T07:11:37;17.60;99.90
10390;DHT22;5241;47.830;12.972;2023-09-19T07:14:03;17.80;99.90
10390;DHT22;5241;47.830;12.972;2023-09-19T07:16:31;17.90;99.90
10390;DHT22;5241;47.830;12.972;2023-09-19T07:18:56;18.00;99.90
10390;DHT22;5241;47.830;12.972;2023-09-19T07:21:23;18.20;99.90
10390;DHT22;5241;47.830;12.972;2023-09-19T07:23:48;18.40;99.90
10390;DHT22;5241;47.830;12.972;2023-09-19T07:26:15;18.60;99.90
10390;DHT22;5241;47.830;12.972;2023-09-19T07:28:41;18.80;99.90
10390;DHT22;5241;47.830;12.972;2023-09-19T07:31:06;19.00;99.90
10390;DHT22;5241;47.830;12.972;2023-09-19T07:33:35;19.20;99.90
10390;DHT22;5241;47.830;12.972;2023-09-19T07:36:01;19.10;99.90
10390;DHT22;5241;47.830;12.972;2023-09-19T07:38:27;19.10;99.90
10390;DHT22;5241;47.830;12.972;2023-09-19T07:40:52;19.00;99.90
10390;DHT22;5241;47.830;12.972;2023-09-19T07:43:18;18.90;99.90
10390;DHT22;5241;47.830;12.972;2023-09-19T07:45:44;18.80;99.90
10390;DHT22;5241;47.830;12.972;2023-09-19T07:48:09;18.80;99.90
10390;DHT22;5241;47.830;12.972;2023-09-19T07:50:40;18.80;99.90
10390;DHT22;5241;47.830;12.972;2023-09-19T07:53:08;19.00;99.90
10390;DHT22;5241;47.830;12.972;2023-09-19T07:55:34;19.00;99.90
10390;DHT22;5241;47.830;12.972;2023-09-19T07:58:00;19.00;99.90
10390;DHT22;5241;47.830;12.972;2023-09-19T08:00:26;19.00;99.90
10390;DHT22;5241;47.830;12.972;2023-09-19T08:02:51;19.10;99.90
10390;DHT22;5241;47.830;12.972;2023-09-19T08:05:19;19.10;99.90
10390;DHT22;5241;47.830;12.972;2023-09-19T08:07:46;19.30;99.90
10390;DHT22;5241;47.830;12.972;2023-09-19T08:10:15;19.40;99.90
10390;DHT22;5241;47.830;12.972;2023-09-19T08:12:45;19.60;99.90
10390;DHT22;5241;47.830;12.972;2023-09-19T08:15:18;19.50;99.90
10390;DHT22;5241;47.830;12.972;2023-09-19T08:17:48;19.60;99.90
10390;DHT22;5241;47.830;12.972;2023-09-19T08:20:13;19.60;99.90
10390;DHT22;5241;47.830;12.972;2023-09-19T08:22:43;19.50;99.90
10390;DHT22;5241;47.830;12.972;2023-09-19T08:25:11;19.70;99.90
10390;DHT22;5241;47.830;12.972;2023-09-19T08:27:37;19.90;99.90
10390;DHT22;5241;47.830;12.972;2023-09-19T08:30:02;20.00;99.90
10390;DHT22;5241;47.830;12.972;2023-09-19T08:32:29;20.00;99.90
10390;DHT22;5241;47.830;12.972;2023-09-19T08:34:54;20.10;99.90
10390;DHT22;5241;47.830;12.972;2023-09-19T08:37:20;20.40;99.90
10390;DHT22;5241;47.830;12.972;2023-09-19T08:39:45;20.30;99.90
10390;DHT22;5241;47.830;12.972;2023-09-19T08:42:11;20.10;99.90
10390;DHT22;5241;47.830;12.972;2023-09-19T08:44:38;20.10;99.90
10390;DHT22;5241;47.830;12.972;2023-09-19T08:47:10;19.90;99.90
10390;DHT22;5241;47.830;12.972;2023-09-19T08:50:00;19.90;99.90
10390;DHT22;5241;47.830;12.972;2023-09-19T08:52:39;20.00;99.90
10390;DHT22;5241;47.830;12.972;2023-09-19T08:55:07;20.00;99.90
10390;DHT22;5241;47.830;12.972;2023-09-19T08:57:36;20.00;99.90
10390;DHT22;5241;47.830;12.972;2023-09-19T09:00:08;20.50;99.90
10390;DHT22;5241;47.830;12.972;2023-09-19T09:02:41;21.20;99.90
10390;DHT22;5241;47.830;12.972;2023-09-19T09:05:09;21.00;99.90
10390;DHT22;5241;47.830;12.972;2023-09-19T09:07:37;20.90;99.90
10390;DHT22;5241;47.830;12.972;2023-09-19T09:10:03;21.00;99.90
10390;DHT22;5241;47.830;12.972;2023-09-19T09:12:29;21.20;99.90
10390;DHT22;5241;47.830;12.972;2023-09-19T09:14:55;21.10;99.90
10390;DHT22;5241;47.830;12.972;2023-09-19T09:17:23;21.10;99.90
10390;DHT22;5241;47.830;12.972;2023-09-19T09:19:53;21.10;99.90
10390;DHT22;5241;47.830;12.972;2023-09-19T09:22:19;20.80;99.90
10390;DHT22;5241;47.830;12.972;2023-09-19T09:24:55;21.00;99.90
10390;DHT22;5241;47.830;12.972;2023-09-19T09:27:24;20.80;99.90
10390;DHT22;5241;47.830;12.972;2023-09-19T09:29:51;20.80;99.90
10390;DHT22;5241;47.830;12.972;2023-09-19T09:34:49;20.80;99.90
10390;DHT22;5241;47.830;12.972;2023-09-19T09:37:16;21.10;99.90
10390;DHT22;5241;47.830;12.972;2023-09-19T09:40:01;21.30;99.90
10390;DHT22;5241;47.830;12.972;2023-09-19T09:42:56;21.50;99.90
10390;DHT22;5241;47.830;12.972;2023-09-19T09:45:24;21.30;99.90
10390;DHT22;5241;47.830;12.972;2023-09-19T09:48:00;21.20;99.90
10390;DHT22;5241;47.830;12.972;2023-09-19T09:50:32;21.10;99.90
10390;DHT22;5241;47.830;12.972;2023-09-19T09:53:27;21.20;99.90
10390;DHT22;5241;47.830;12.972;2023-09-19T09:56:03;21.00;99.90
10390;DHT22;5241;47.830;12.972;2023-09-19T09:58:34;21.10;99.90
10390;DHT22;5241;47.830;12.972;2023-09-19T10:01:03;21.00;99.90
10390;DHT22;5241;47.830;12.972;2023-09-19T10:03:39;21.10;99.90
10390;DHT22;5241;47.830;12.972;2023-09-19T10:06:10;21.20;99.90
10390;DHT22;5241;47.830;12.972;2023-09-19T10:09:08;21.40;99.90
10390;DHT22;5241;47.830;12.972;2023-09-19T10:11:44;21.50;99.90
10390;DHT22;5241;47.830;12.972;2023-09-19T10:14:15;21.80;99.90
10390;DHT22;5241;47.830;12.972;2023-09-19T10:16:48;22.10;99.90
10390;DHT22;5241;47.830;12.972;2023-09-19T10:19:21;22.30;99.90
10390;DHT22;5241;47.830;12.972;2023-09-19T10:21:49;22.20;99.90
10390;DHT22;5241;47.830;12.972;2023-09-19T10:24:15;22.40;99.90
10390;DHT22;5241;47.830;12.972;2023-09-19T10:26:44;22.20;99.90
10390;DHT22;5241;47.830;12.972;2023-09-19T10:29:13;21.90;99.90
10390;DHT22;5241;47.830;12.972;2023-09-19T10:31:39;22.20;99.90
10390;DHT22;5241;47.830;12.972;2023-09-19T10:34:16;23.10;99.90
10390;DHT22;5241;47.830;12.972;2023-09-19T10:36:44;23.10;99.90
10390;DHT22;5241;47.830;12.972;2023-09-19T10:39:11;23.30;99.90
10390;DHT22;5241;47.830;12.972;2023-09-19T10:41:39;23.20;99.90
10390;DHT22;5241;47.830;12.972;2023-09-19T10:44:05;23.50;99.90
10390;DHT22;5241;47.830;12.972;2023-09-19T10:46:32;23.80;99.90
10390;DHT22;5241;47.830;12.972;2023-09-19T10:49:02;24.50;99.90
10390;DHT22;5241;47.830;12.972;2023-09-19T10:51:41;25.50;99.70
10390;DHT22;5241;47.830;12.972;2023-09-19T10:54:11;25.70;98.20
10390;DHT22;5241;47.830;12.972;2023-09-19T10:56:42;25.60;96.60
10390;DHT22;5241;47.830;12.972;2023-09-19T10:59:12;25.70;96.50
10390;DHT22;5241;47.830;12.972;2023-09-19T11:02:15;25.60;97.10
10390;DHT22;5241;47.830;12.972;2023-09-19T11:04:42;24.90;96.20
10390;DHT22;5241;47.830;12.972;2023-09-19T11:07:09;24.60;97.20
10390;DHT22;5241;47.830;12.972;2023-09-19T11:09:44;24.70;97.00
10390;DHT22;5241;47.830;12.972;2023-09-19T11:12:12;24.30;97.90
10390;DHT22;5241;47.830;12.972;2023-09-19T11:14:39;23.80;99.10
10390;DHT22;5241;47.830;12.972;2023-09-19T11:30:39;24.10;98.10
10390;DHT22;5241;47.830;12.972;2023-09-19T11:33:18;23.80;98.50
10390;DHT22;5241;47.830;12.972;2023-09-19T11:46:30;24.00;98.50
10390;DHT22;5241;47.830;12.972;2023-09-19T11:49:05;23.90;99.30
10390;DHT22;5241;47.830;12.972;2023-09-19T11:51:40;23.50;98.30
10390;DHT22;5241;47.830;12.972;2023-09-19T11:54:11;23.40;98.90
10390;DHT22;5241;47.830;12.972;2023-09-19T11:56:53;23.30;99.90
10390;DHT22;5241;47.830;12.972;2023-09-19T11:59:29;23.40;99.90
10390;DHT22;5241;47.830;12.972;2023-09-19T12:02:05;22.80;99.90
10390;DHT22;5241;47.830;12.972;2023-09-19T12:04:38;22.80;99.90
10390;DHT22;5241;47.830;12.972;2023-09-19T12:07:08;23.00;99.90
10390;DHT22;5241;47.830;12.972;2023-09-19T12:09:41;22.70;99.90
10390;DHT22;5241;47.830;12.972;2023-09-19T12:12:19;22.30;99.90
10390;DHT22;5241;47.830;12.972;2023-09-19T12:14:49;22.10;99.90
10390;DHT22;5241;47.830;12.972;2023-09-19T12:17:14;21.80;99.90
10390;DHT22;5241;47.830;12.972;2023-09-19T12:19:50;21.60;99.90
10390;DHT22;5241;47.830;12.972;2023-09-19T12:22:16;21.50;99.90
10390;DHT22;5241;47.830;12.972;2023-09-19T12:24:43;22.10;99.90
10390;DHT22;5241;47.830;12.972;2023-09-19T12:27:09;22.40;99.90
10390;DHT22;5241;47.830;12.972;2023-09-19T12:29:49;23.10;99.90
10390;DHT22;5241;47.830;12.972;2023-09-19T12:32:15;24.60;99.90
10390;DHT22;5241;47.830;12.972;2023-09-19T12:34:51;25.50;98.80
10390;DHT22;5241;47.830;12.972;2023-09-19T12:37:17;26.00;97.30
10390;DHT22;5241;47.830;12.972;2023-09-19T12:39:48;27.20;95.30
10390;DHT22;5241;47.830;12.972;2023-09-19T12:42:16;27.20;94.30
10390;DHT22;5241;47.830;12.972;2023-09-19T12:44:47;27.20;94.10
10390;DHT22;5241;47.830;12.972;2023-09-19T12:47:17;27.20;93.90
10390;DHT22;5241;47.830;12.972;2023-09-19T12:52:38;26.90;93.90
10390;DHT22;5241;47.830;12.972;2023-09-19T12:55:04;26.60;93.40
10390;DHT22;5241;47.830;12.972;2023-09-19T12:57:30;27.00;93.00
10390;DHT22;5241;47.830;12.972;2023-09-19T13:00:03;26.10;93.80
10390;DHT22;5241;47.830;12.972;2023-09-19T13:02:36;25.30;95.10
10390;DHT22;5241;47.830;12.972;2023-09-19T13:05:02;24.50;97.10
10390;DHT22;5241;47.830;12.972;2023-09-19T13:07:45;24.70;96.80
10390;DHT22;5241;47.830;12.972;2023-09-19T13:10:12;25.80;96.50
10390;DHT22;5241;47.830;12.972;2023-09-19T13:12:43;27.30;93.50
10390;DHT22;5241;47.830;12.972;2023-09-19T13:15:13;27.50;91.50
10390;DHT22;5241;47.830;12.972;2023-09-19T13:17:44;28.10;90.50
10390;DHT22;5241;47.830;12.972;2023-09-19T13:20:30;27.50;90.20
10390;DHT22;5241;47.830;12.972;2023-09-19T13:22:58;27.00;90.20
10390;DHT22;5241;47.830;12.972;2023-09-19T13:25:25;27.30;90.80
10390;DHT22;5241;47.830;12.972;2023-09-19T13:27:54;26.90;89.80
10390;DHT22;5241;47.830;12.972;2023-09-19T13:30:31;27.20;88.90
10390;DHT22;5241;47.830;12.972;2023-09-19T13:33:08;27.10;88.10
10390;DHT22;5241;47.830;12.972;2023-09-19T13:35:35;26.70;88.20
10390;DHT22;5241;47.830;12.972;2023-09-19T13:38:02;27.10;86.80
10390;DHT22;5241;47.830;12.972;2023-09-19T13:40:27;27.30;86.60
10390;DHT22;5241;47.830;12.972;2023-09-19T13:42:56;27.00;86.50
10390;DHT22;5241;47.830;12.972;2023-09-19T13:45:22;27.60;85.10
10390;DHT22;5241;47.830;12.972;2023-09-19T13:47:50;28.50;83.90
10390;DHT22;5241;47.830;12.972;2023-09-19T13:50:15;28.80;81.70
10390;DHT22;5241;47.830;12.972;2023-09-19T13:52:42;27.80;81.60
10390;DHT22;5241;47.830;12.972;2023-09-19T13:55:08;27.50;82.10
10390;DHT22;5241;47.830;12.972;2023-09-19T13:57:33;27.20;84.30
10390;DHT22;5241;47.830;12.972;2023-09-19T13:59:59;27.40;82.70
10390;DHT22;5241;47.830;12.972;2023-09-19T14:02:25;27.30;83.80
10390;DHT22;5241;47.830;12.972;2023-09-19T14:04:53;28.10;80.50
10390;DHT22;5241;47.830;12.972;2023-09-19T14:07:19;26.30;83.50
10390;DHT22;5241;47.830;12.972;2023-09-19T14:09:45;24.90;89.20
10390;DHT22;5241;47.830;12.972;2023-09-19T14:12:11;24.70;90.60
10390;DHT22;5241;47.830;12.972;2023-09-19T14:14:37;25.90;88.30
10390;DHT22;5241;47.830;12.972;2023-09-19T14:17:04;25.90;86.50
10390;DHT22;5241;47.830;12.972;2023-09-19T14:19:30;24.90;90.50
10390;DHT22;5241;47.830;12.972;2023-09-19T14:21:55;24.00;91.50
10390;DHT22;5241;47.830;12.972;2023-09-19T14:24:22;23.20;92.70
10390;DHT22;5241;47.830;12.972;2023-09-19T14:26:47;23.00;93.10
10390;DHT22;5241;47.830;12.972;2023-09-19T14:29:15;23.10;93.00
10390;DHT22;5241;47.830;12.972;2023-09-19T14:31:41;22.60;93.70
10390;DHT22;5241;47.830;12.972;2023-09-19T14:34:07;22.60;94.20
10390;DHT22;5241;47.830;12.972;2023-09-19T14:36:35;22.60;94.40
10390;DHT22;5241;47.830;12.972;2023-09-19T14:39:00;22.60;94.60
10390;DHT22;5241;47.830;12.972;2023-09-19T14:41:26;22.60;94.80
10390;DHT22;5241;47.830;12.972;2023-09-19T14:43:52;22.80;93.40
10390;DHT22;5241;47.830;12.972;2023-09-19T14:46:18;22.90;94.20
10390;DHT22;5241;47.830;12.972;2023-09-19T14:48:45;23.10;92.80
10390;DHT22;5241;47.830;12.972;2023-09-19T14:51:13;23.20;91.60
10390;DHT22;5241;47.830;12.972;2023-09-19T14:53:42;23.50;93.10
10390;DHT22;5241;47.830;12.972;2023-09-19T14:56:08;23.60;91.60
10390;DHT22;5241;47.830;12.972;2023-09-19T14:58:35;23.80;90.40
10390;DHT22;5241;47.830;12.972;2023-09-19T15:01:08;23.60;91.70
10390;DHT22;5241;47.830;12.972;2023-09-19T15:03:36;23.20;90.90
10390;DHT22;5241;47.830;12.972;2023-09-19T15:06:03;23.10;92.20
10390;DHT22;5241;47.830;12.972;2023-09-19T15:08:33;22.60;92.70
10390;DHT22;5241;47.830;12.972;2023-09-19T15:11:03;22.40;92.90
10390;DHT22;5241;47.830;12.972;2023-09-19T15:13:31;22.40;92.50
10390;DHT22;5241;47.830;12.972;2023-09-19T15:16:04;22.20;92.20
10390;DHT22;5241;47.830;12.972;2023-09-19T15:18:30;22.10;92.40
10390;DHT22;5241;47.830;12.972;2023-09-19T15:21:00;21.90;93.70
10390;DHT22;5241;47.830;12.972;2023-09-19T15:23:26;21.70;96.40
10390;DHT22;5241;47.830;12.972;2023-09-19T15:25:51;21.60;96.90
10390;DHT22;5241;47.830;12.972;2023-09-19T15:28:18;21.50;97.00
10390;DHT22;5241;47.830;12.972;2023-09-19T15:30:44;21.40;96.70
10390;DHT22;5241;47.830;12.972;2023-09-19T15:33:09;21.30;96.80
10390;DHT22;5241;47.830;12.972;2023-09-19T15:35:35;21.20;97.60
10390;DHT22;5241;47.830;12.972;2023-09-19T15:38:03;21.20;98.40
10390;DHT22;5241;47.830;12.972;2023-09-19T15:40:29;21.10;98.50
10390;DHT22;5241;47.830;12.972;2023-09-19T15:42:55;21.10;98.10
10390;DHT22;5241;47.830;12.972;2023-09-19T15:45:22;21.10;97.60
10390;DHT22;5241;47.830;12.972;2023-09-19T15:47:48;20.90;99.90
10390;DHT22;5241;47.830;12.972;2023-09-19T15:50:13;20.80;99.90
10390;DHT22;5241;47.830;12.972;2023-09-19T15:52:41;20.80;99.90
10390;DHT22;5241;47.830;12.972;2023-09-19T15:55:06;20.80;99.90
10390;DHT22;5241;47.830;12.972;2023-09-19T15:57:33;20.90;99.90
10390;DHT22;5241;47.830;12.972;2023-09-19T15:59:59;20.80;99.90
10390;DHT22;5241;47.830;12.972;2023-09-19T16:02:25;20.70;99.90
10390;DHT22;5241;47.830;12.972;2023-09-19T16:04:51;20.60;99.90
10390;DHT22;5241;47.830;12.972;2023-09-19T16:07:19;20.60;99.90
10390;DHT22;5241;47.830;12.972;2023-09-19T16:09:45;20.60;99.90
10390;DHT22;5241;47.830;12.972;2023-09-19T16:12:10;20.50;99.90
10390;DHT22;5241;47.830;12.972;2023-09-19T16:14:36;20.40;99.90
10390;DHT22;5241;47.830;12.972;2023-09-19T16:17:03;20.30;99.90
10390;DHT22;5241;47.830;12.972;2023-09-19T16:19:28;20.20;99.90
10390;DHT22;5241;47.830;12.972;2023-09-19T16:21:54;20.00;99.90
10390;DHT22;5241;47.830;12.972;2023-09-19T16:24:21;20.00;99.90
10390;DHT22;5241;47.830;12.972;2023-09-19T16:26:47;20.00;99.90
10390;DHT22;5241;47.830;12.972;2023-09-19T16:29:14;19.90;99.90